Time;durP1;ratioP1;P1;durP2;ratioP2;P2;SDS_P1;SDS_P2;PMS_P1;PMS_P2;Temp;Humidity;BMP_temperature;BMP_pressure;BME280_temperature;BME280_humidity;BME280_pressure;Samples;Min_cycle;Max_cycle;Signal;HPM_P1;HPM_P2
2022/03/31 00:00:48;;;;;;;10.40;2.95;;;;;;;4.13;87.15;99416.34;5233604;28;20086;-78
2022/03/31 00:03:20;;;;;;;10.70;2.95;;;;;;;3.95;88.27;99418.63;5236152;28;20052;-77
2022/03/31 00:05:51;;;;;;;12.18;2.95;;;;;;;3.98;88.52;99415.94;5234970;28;20808;-78
2022/03/31 00:08:21;;;;;;;6.85;3.13;;;;;;;4.02;88.80;99412.38;5234339;28;20159;-77
2022/03/31 00:10:54;;;;;;;6.75;3.10;;;;;;;4.10;88.54;99416.44;5232720;28;20052;-78
2022/03/31 00:13:29;;;;;;;6.22;3.35;;;;;;;4.06;88.53;99417.44;5235910;28;20016;-78
2022/03/31 00:15:59;;;;;;;7.43;3.28;;;;;;;4.09;88.85;99414.75;5231769;28;20502;-78
2022/03/31 00:18:31;;;;;;;7.72;3.13;;;;;;;4.04;88.98;99411.47;5233146;28;20044;-78
2022/03/31 00:21:01;;;;;;;9.65;3.20;;;;;;;4.04;88.88;99406.28;5234186;28;20020;-78
2022/03/31 00:23:36;;;;;;;6.88;2.88;;;;;;;3.90;88.51;99407.53;5232741;28;20037;-78
2022/03/31 00:26:08;;;;;;;7.35;3.25;;;;;;;3.91;89.13;99399.75;5236715;28;20039;-78
2022/03/31 00:28:38;;;;;;;9.38;3.30;;;;;;;3.89;89.47;99400.69;5231674;28;20207;-78
2022/03/31 00:31:09;;;;;;;6.82;3.40;;;;;;;3.91;89.65;99397.19;5230432;28;20100;-78
2022/03/31 00:33:39;;;;;;;11.07;3.40;;;;;;;3.77;89.08;99401.88;5228003;28;20414;-78
2022/03/31 00:36:09;;;;;;;7.65;3.67;;;;;;;3.92;89.54;99400.63;5236233;28;20033;-78
2022/03/31 00:39:28;;;;;;;9.25;3.38;;;;;;;3.93;88.93;99399.72;5232166;28;20033;-78
2022/03/31 00:41:38;;;;;;;9.05;3.90;;;;;;;4.06;88.93;99407.09;5234855;28;20032;-77
2022/03/31 00:44:09;;;;;;;8.88;4.05;;;;;;;3.90;89.52;99392.91;5235370;28;20461;-78
2022/03/31 00:46:49;;;;;;;8.07;3.38;;;;;;;3.92;88.72;99392.88;5231598;28;20052;-77
2022/03/31 00:49:21;;;;;;;9.27;3.95;;;;;;;3.88;89.34;99393.81;5234395;28;20489;-77
2022/03/31 00:51:53;;;;;;;9.20;4.00;;;;;;;3.99;89.66;99400.38;5233145;28;20053;-78
2022/03/31 00:54:27;;;;;;;10.07;3.53;;;;;;;4.07;89.98;99395.84;5233627;28;20716;-78
2022/03/31 00:56:58;;;;;;;9.43;4.13;;;;;;;4.17;91.88;99399.88;5230328;28;20031;-78
2022/03/31 00:59:29;;;;;;;12.75;4.68;;;;;;;4.36;90.66;99408.81;5231261;28;20163;-78
2022/03/31 01:02:01;;;;;;;9.20;4.00;;;;;;;4.29;91.46;99396.91;5233807;28;20104;-78
2022/03/31 01:04:31;;;;;;;10.52;4.53;;;;;;;4.48;90.69;99395.47;5218121;28;20052;-79
2022/03/31 01:07:01;;;;;;;9.80;4.85;;;;;;;4.45;91.01;99390.41;5238811;28;20422;-78
2022/03/31 01:09:32;;;;;;;9.93;4.88;;;;;;;4.43;92.08;99394.78;5237431;28;20039;-78
2022/03/31 01:12:03;;;;;;;9.73;4.68;;;;;;;4.47;92.23;99395.53;5231120;28;20056;-78
2022/03/31 01:14:33;;;;;;;12.90;5.07;;;;;;;4.59;92.91;99389.97;5234161;28;20055;-78
2022/03/31 01:17:03;;;;;;;17.70;5.78;;;;;;;4.57;92.86;99387.47;5232946;28;20037;-78
2022/03/31 01:19:34;;;;;;;13.40;5.88;;;;;;;4.51;96.24;99387.66;5240496;28;20078;-79
2022/03/31 01:22:05;;;;;;;14.23;5.97;;;;;;;4.41;100.00;99382.78;5229944;28;20573;-79
2022/03/31 01:24:36;;;;;;;18.88;7.53;;;;;;;4.56;100.00;99380.59;5233768;28;20486;-79
2022/03/31 01:27:11;;;;;;;16.50;7.57;;;;;;;4.53;100.00;99379.84;5233505;28;20028;-79
2022/03/31 01:29:41;;;;;;;13.82;6.82;;;;;;;4.57;100.00;99377.13;5235173;28;20028;-79
2022/03/31 01:32:11;;;;;;;13.50;6.78;;;;;;;4.57;100.00;99379.69;5234013;28;20044;-78
2022/03/31 01:34:42;;;;;;;13.82;6.50;;;;;;;4.65;100.00;99382.88;5237926;28;20074;-78
2022/03/31 01:37:15;;;;;;;16.40;7.25;;;;;;;4.68;100.00;99375.06;5233612;28;20039;-79
2022/03/31 01:39:45;;;;;;;17.08;7.32;;;;;;;4.69;100.00;99381.91;5239203;28;20363;-79
2022/03/31 01:42:15;;;;;;;19.27;6.45;;;;;;;4.50;100.00;99367.81;5234518;28;20033;-78
2022/03/31 01:44:46;;;;;;;12.98;6.60;;;;;;;4.50;100.00;99370.41;5237504;28;20031;-79
2022/03/31 01:47:17;;;;;;;14.52;7.15;;;;;;;4.53;100.00;99369.47;5232534;28;20449;-79
2022/03/31 01:49:47;;;;;;;16.27;7.10;;;;;;;4.63;100.00;99352.78;5231992;28;20024;-79
2022/03/31 01:52:18;;;;;;;14.25;6.85;;;;;;;4.59;100.00;99354.63;5234927;28;20495;-79
2022/03/31 01:54:49;;;;;;;14.68;7.60;;;;;;;4.61;100.00;99363.19;5240402;28;20025;-79
2022/03/31 01:57:19;;;;;;;16.67;7.63;;;;;;;4.62;100.00;99362.28;5231836;28;20037;-79
2022/03/31 01:59:50;;;;;;;16.42;7.63;;;;;;;4.67;100.00;99357.81;5231776;28;20424;-78
2022/03/31 02:02:20;;;;;;;15.57;7.40;;;;;;;4.68;100.00;99349.19;5235053;28;20220;-79
2022/03/31 02:04:50;;;;;;;15.02;7.03;;;;;;;4.67;100.00;99344.88;5236780;28;20020;-79
2022/03/31 02:07:21;;;;;;;12.82;7.22;;;;;;;4.67;100.00;99347.47;5235232;28;20050;-79
2022/03/31 02:09:51;;;;;;;13.60;7.47;;;;;;;4.84;100.00;99345.19;5238048;28;20028;-79
2022/03/31 02:12:22;;;;;;;16.40;7.28;;;;;;;4.71;100.00;99337.88;5234695;28;20041;-79
2022/03/31 02:14:52;;;;;;;17.90;7.40;;;;;;;4.56;100.00;99334.03;5235442;28;20073;-79
2022/03/31 02:17:22;;;;;;;14.18;6.70;;;;;;;4.54;100.00;99335.81;5235384;28;20032;-79
2022/03/31 02:19:52;;;;;;;14.38;7.47;;;;;;;4.49;100.00;99332.50;5239413;28;20024;-79
2022/03/31 02:22:23;;;;;;;12.82;6.07;;;;;;;4.42;100.00;99335.34;5240196;28;20028;-79
2022/03/31 02:24:53;;;;;;;14.95;6.32;;;;;;;4.27;100.00;99336.66;5234333;28;20028;-79
2022/03/31 02:27:23;;;;;;;14.43;6.55;;;;;;;4.24;100.00;99341.94;5231024;28;20036;-79
2022/03/31 02:29:53;;;;;;;16.75;6.75;;;;;;;4.21;100.00;99329.09;5233086;28;20031;-79
2022/03/31 02:32:24;;;;;;;14.38;6.80;;;;;;;4.18;100.00;99339.53;5234703;28;20025;-78
2022/03/31 02:34:54;;;;;;;16.17;6.82;;;;;;;4.00;100.00;99332.31;5234697;28;20029;-78
2022/03/31 02:37:25;;;;;;;16.17;6.88;;;;;;;4.00;100.00;99331.47;5234019;28;20487;-79
2022/03/31 02:39:55;;;;;;;14.85;7.57;;;;;;;3.80;100.00;99338.94;5236188;28;20038;-77
2022/03/31 02:42:25;;;;;;;16.65;7.05;;;;;;;3.79;100.00;99338.09;5237169;28;20040;-78
2022/03/31 02:44:56;;;;;;;16.90;7.32;;;;;;;3.75;100.00;99339.06;5242764;28;20028;-78
2022/03/31 02:47:27;;;;;;;16.00;7.10;;;;;;;3.74;100.00;99329.63;5234763;28;20071;-78
2022/03/31 02:49:58;;;;;;;20.85;8.05;;;;;;;3.60;100.00;99334.31;5236309;28;20110;-78
2022/03/31 02:55:24;;;;;;;19.58;8.50;;;;;;;3.59;100.00;99329.22;5234325;28;20037;-77
2022/03/31 02:55:24;;;;;;;15.55;8.65;;;;;;;3.60;100.00;99336.06;5235046;28;20032;-78
2022/03/31 02:57:56;;;;;;;18.05;10.48;;;;;;;3.70;100.00;99328.03;5239328;28;20107;-78
2022/03/31 03:00:28;;;;;;;22.17;12.00;;;;;;;3.77;100.00;99332.13;5218743;28;20029;-77
2022/03/31 03:03:01;;;;;;;28.92;14.27;;;;;;;3.81;100.00;99325.97;5234277;28;20039;-77
2022/03/31 03:05:32;;;;;;;26.70;14.45;;;;;;;3.73;100.00;99325.34;5235794;28;20176;-78
2022/03/31 03:08:03;;;;;;;26.45;13.88;;;;;;;3.66;100.00;99322.97;5234303;28;20079;-77
2022/03/31 03:10:34;;;;;;;29.67;14.25;;;;;;;3.66;100.00;99331.59;5240121;28;20043;-78
2022/03/31 03:13:04;;;;;;;26.48;12.88;;;;;;;3.68;100.00;99334.13;5237274;28;20044;-78
2022/03/31 03:15:35;;;;;;;22.73;12.10;;;;;;;3.63;100.00;99331.66;5238992;28;20024;-78
2022/03/31 03:18:08;;;;;;;22.13;11.52;;;;;;;3.76;100.00;99327.00;5233837;28;20024;-78
2022/03/31 03:20:38;;;;;;;19.48;8.98;;;;;;;3.83;100.00;99329.38;5236216;28;20056;-78
2022/03/31 03:23:08;;;;;;;17.83;8.95;;;;;;;3.98;100.00;99328.09;5233073;28;20037;-78
2022/03/31 03:25:38;;;;;;;17.10;8.02;;;;;;;3.97;100.00;99329.81;5237326;28;20051;-78
2022/03/31 03:28:09;;;;;;;18.52;8.63;;;;;;;4.08;100.00;99324.31;5238830;28;20025;-78
2022/03/31 03:30:39;;;;;;;15.73;9.20;;;;;;;4.03;100.00;99326.19;5236633;28;20029;-77
2022/03/31 03:33:09;;;;;;;18.90;9.43;;;;;;;4.05;100.00;99314.94;5237179;28;20039;-78
2022/03/31 03:35:39;;;;;;;22.52;10.88;;;;;;;4.08;100.00;99320.00;5233320;28;20025;-78
2022/03/31 03:38:10;;;;;;;19.08;10.45;;;;;;;4.10;100.00;99323.41;5236494;28;20032;-78
2022/03/31 03:40:41;;;;;;;19.20;10.82;;;;;;;4.07;100.00;99315.75;5235939;28;20024;-78
2022/03/31 03:43:12;;;;;;;23.63;12.52;;;;;;;4.01;100.00;99331.44;5218837;28;20047;-78
2022/03/31 03:45:42;;;;;;;25.73;13.75;;;;;;;3.83;100.00;99323.34;5220891;28;20029;-77
2022/03/31 03:48:13;;;;;;;29.85;15.32;;;;;;;3.89;100.00;99324.03;5235587;28;20025;-77
2022/03/31 03:50:43;;;;;;;27.35;14.10;;;;;;;3.84;100.00;99322.47;5232121;28;20055;-78
2022/03/31 03:53:14;;;;;;;23.30;12.50;;;;;;;3.85;100.00;99324.16;5235507;28;20032;-77
2022/03/31 03:55:44;;;;;;;23.00;12.68;;;;;;;3.90;100.00;99320.56;5232914;28;20090;-78
2022/03/31 03:58:15;;;;;;;21.27;12.18;;;;;;;3.85;100.00;99317.25;5229290;28;20068;-77
2022/03/31 04:00:45;;;;;;;22.55;11.65;;;;;;;3.82;100.00;99319.06;5233083;28;20055;-78
2022/03/31 04:03:15;;;;;;;22.33;12.23;;;;;;;3.84;100.00;99313.00;5235312;28;20578;-78
2022/03/31 04:05:46;;;;;;;26.35;12.00;;;;;;;3.79;100.00;99314.84;5234823;28;20044;-78
2022/03/31 04:08:16;;;;;;;27.05;12.35;;;;;;;3.78;100.00;99320.06;5234718;28;20777;-78
2022/03/31 04:10:46;;;;;;;22.70;10.27;;;;;;;3.78;100.00;99322.66;5234059;28;20463;-78
2022/03/31 04:13:16;;;;;;;21.40;10.38;;;;;;;3.72;100.00;99325.38;5234993;28;20088;-78
2022/03/31 04:15:47;;;;;;;23.55;11.07;;;;;;;3.73;100.00;99312.44;5233791;28;20698;-78
2022/03/31 04:18:17;;;;;;;20.67;11.02;;;;;;;3.78;100.00;99314.91;5232733;28;20037;-78
2022/03/31 04:20:47;;;;;;;20.85;10.68;;;;;;;3.90;100.00;99315.38;5234427;28;20058;-78
2022/03/31 04:23:17;;;;;;;22.73;11.68;;;;;;;3.89;100.00;99313.69;5235087;28;20068;-78
2022/03/31 04:25:48;;;;;;;23.25;11.70;;;;;;;3.79;100.00;99320.00;5232829;28;20028;-77
2022/03/31 04:28:18;;;;;;;27.80;13.20;;;;;;;3.84;100.00;99315.56;5234276;28;20479;-78
2022/03/31 04:30:48;;;;;;;27.88;14.32;;;;;;;3.79;100.00;99324.34;5233504;28;20398;-78
2022/03/31 04:33:19;;;;;;;29.25;13.55;;;;;;;3.78;100.00;99328.66;5232770;28;20056;-77
2022/03/31 04:35:49;;;;;;;33.38;15.07;;;;;;;3.71;100.00;99323.69;5235067;28;20064;-77
2022/03/31 04:38:19;;;;;;;34.42;16.75;;;;;;;3.69;100.00;99334.09;5238319;28;20021;-77
2022/03/31 04:40:50;;;;;;;38.50;18.13;;;;;;;3.70;100.00;99322.88;5238125;28;20017;-77
2022/03/31 04:43:20;;;;;;;40.55;20.27;;;;;;;3.76;100.00;99333.00;5234549;28;20040;-78
2022/03/31 04:45:50;;;;;;;42.42;19.50;;;;;;;3.74;100.00;99329.63;5234233;28;20479;-77
2022/03/31 04:48:21;;;;;;;46.97;18.90;;;;;;;3.71;100.00;99329.72;5234894;28;20525;-77
2022/03/31 04:50:51;;;;;;;42.95;20.15;;;;;;;3.74;100.00;99326.19;5234477;28;20024;-78
2022/03/31 04:53:21;;;;;;;44.45;21.67;;;;;;;3.91;100.00;99324.81;5234803;28;20033;-78
2022/03/31 04:55:52;;;;;;;43.15;20.85;;;;;;;3.91;100.00;99322.25;5233902;28;20363;-78
2022/03/31 04:58:22;;;;;;;41.90;20.42;;;;;;;3.89;100.00;99323.16;5228446;28;20025;-77
2022/03/31 05:00:52;;;;;;;46.63;20.63;;;;;;;3.84;100.00;99331.06;5232369;28;20032;-78
2022/03/31 05:03:23;;;;;;;43.17;20.90;;;;;;;3.94;100.00;99329.06;5236328;28;20090;-78
2022/03/31 05:05:53;;;;;;;43.90;21.40;;;;;;;3.99;100.00;99327.19;5237596;28;20059;-78
2022/03/31 05:08:23;;;;;;;40.67;19.90;;;;;;;4.10;100.00;99323.41;5239232;28;20039;-78
2022/03/31 05:10:54;;;;;;;39.90;19.50;;;;;;;4.19;100.00;99330.03;5240340;28;20031;-78
2022/03/31 05:13:24;;;;;;;31.98;16.15;;;;;;;4.02;100.00;99334.84;5239708;28;20073;-78
2022/03/31 05:15:54;;;;;;;34.65;17.17;;;;;;;4.04;100.00;99322.72;5238214;28;20033;-78
2022/03/31 05:18:25;;;;;;;31.08;15.57;;;;;;;4.03;100.00;99332.22;5238091;28;20500;-78
2022/03/31 05:20:55;;;;;;;28.40;15.43;;;;;;;4.00;100.00;99322.00;5238658;28;20509;-78
2022/03/31 05:23:25;;;;;;;34.90;16.27;;;;;;;4.09;100.00;99324.28;5238072;28;20040;-78
2022/03/31 05:25:55;;;;;;;25.88;12.75;;;;;;;4.10;100.00;99327.72;5237429;28;20064;-77
2022/03/31 05:28:26;;;;;;;31.02;13.60;;;;;;;4.06;100.00;99326.97;5244853;28;20033;-78
2022/03/31 05:30:56;;;;;;;25.05;12.98;;;;;;;4.18;100.00;99321.44;5238743;28;20033;-79
2022/03/31 05:33:28;;;;;;;20.35;10.45;;;;;;;4.19;100.00;99323.13;5237808;28;20036;-79
2022/03/31 05:35:59;;;;;;;20.27;10.75;;;;;;;4.12;100.00;99320.78;5237139;28;20105;-78
2022/03/31 05:38:30;;;;;;;18.65;9.93;;;;;;;4.22;100.00;99322.16;5243440;28;20028;-79
2022/03/31 05:41:00;;;;;;;16.17;8.55;;;;;;;4.24;100.00;99329.00;5235458;28;20073;-79
2022/03/31 05:43:31;;;;;;;20.52;9.05;;;;;;;4.20;100.00;99316.22;5238772;28;20047;-78
2022/03/31 05:46:01;;;;;;;15.73;8.10;;;;;;;4.18;100.00;99325.75;5239781;28;20288;-78
2022/03/31 05:48:31;;;;;;;18.63;8.65;;;;;;;4.20;100.00;99335.16;5236458;28;20029;-78
2022/03/31 05:51:01;;;;;;;20.23;8.55;;;;;;;4.13;100.00;99335.38;5237711;28;20032;-78
2022/03/31 05:53:32;;;;;;;18.38;8.50;;;;;;;4.11;100.00;99335.41;5233591;28;20028;-78
2022/03/31 05:56:02;;;;;;;17.05;9.30;;;;;;;3.96;100.00;99341.03;5234279;28;20109;-79
2022/03/31 05:58:33;;;;;;;16.13;9.35;;;;;;;3.91;100.00;99348.09;5231407;28;20029;-79
2022/03/31 06:01:04;;;;;;;15.63;7.43;;;;;;;3.76;100.00;99343.34;5233713;28;20083;-78
2022/03/31 06:03:34;;;;;;;13.73;7.72;;;;;;;3.83;100.00;99350.06;5237854;28;20028;-79
2022/03/31 06:06:05;;;;;;;14.30;6.55;;;;;;;3.93;98.04;99356.63;5235540;28;20395;-78
2022/03/31 06:08:35;;;;;;;16.30;6.25;;;;;;;4.01;98.82;99353.84;5237495;28;20023;-78
2022/03/31 06:11:05;;;;;;;12.15;5.15;;;;;;;3.74;97.88;99355.47;5233479;28;20035;-78
2022/03/31 06:13:35;;;;;;;11.70;5.70;;;;;;;3.74;98.81;99362.34;5233956;28;20031;-78
2022/03/31 06:16:06;;;;;;;9.30;5.32;;;;;;;3.66;97.42;99352.25;5219735;28;20123;-79
2022/03/31 06:18:36;;;;;;;14.25;5.95;;;;;;;3.59;94.88;99350.72;5234246;28;20387;-78
2022/03/31 06:21:06;;;;;;;16.17;6.07;;;;;;;3.62;93.36;99355.78;5237474;28;20101;-78
2022/03/31 06:23:37;;;;;;;14.77;6.40;;;;;;;3.48;91.09;99359.66;5234665;28;20430;-78
2022/03/31 06:26:07;;;;;;;10.88;5.80;;;;;;;3.53;90.64;99364.69;5235752;28;20037;-78
2022/03/31 06:28:41;;;;;;;15.77;6.57;;;;;;;3.64;89.47;99363.50;5230008;28;20429;-79
2022/03/31 06:31:11;;;;;;;14.85;6.10;;;;;;;3.74;89.65;99363.22;5214861;28;20545;-78
2022/03/31 06:33:41;;;;;;;14.93;6.40;;;;;;;3.73;89.92;99368.41;5236247;28;20085;-78
2022/03/31 06:36:12;;;;;;;15.32;5.90;;;;;;;3.83;90.20;99372.44;5236482;28;20386;-78
2022/03/31 06:38:42;;;;;;;12.05;5.78;;;;;;;3.86;90.19;99375.78;5236148;28;20028;-78
2022/03/31 06:41:15;;;;;;;14.40;6.13;;;;;;;4.13;89.13;99385.34;5228856;28;20100;-78
2022/03/31 06:43:48;;;;;;;15.57;6.30;;;;;;;4.11;87.75;99373.38;5239059;28;20115;-78
2022/03/31 06:46:18;;;;;;;14.85;6.75;;;;;;;3.64;87.98;99390.16;5238788;28;20443;-78
2022/03/31 06:48:48;;;;;;;12.25;6.55;;;;;;;3.55;88.42;99379.25;5233051;28;20017;-78
2022/03/31 06:51:19;;;;;;;17.48;6.85;;;;;;;3.52;88.02;99394.00;5231042;28;20286;-78
2022/03/31 06:53:50;;;;;;;13.98;6.18;;;;;;;3.74;87.40;99386.47;5234770;28;20050;-78
2022/03/31 06:56:21;;;;;;;11.00;6.00;;;;;;;3.66;86.97;99390.13;5237161;28;20385;-78
2022/03/31 06:58:51;;;;;;;13.13;7.03;;;;;;;3.71;87.39;99386.56;5230011;28;20029;-78
2022/03/31 07:01:22;;;;;;;13.50;6.57;;;;;;;3.69;87.34;99388.34;5234814;28;20068;-78
2022/03/31 07:03:52;;;;;;;14.55;6.97;;;;;;;3.57;87.24;99385.22;5233534;28;20052;-79
2022/03/31 07:06:23;;;;;;;14.38;7.13;;;;;;;3.84;86.19;99392.22;5233576;28;20438;-78
2022/03/31 07:08:53;;;;;;;14.38;6.65;;;;;;;3.77;87.11;99391.53;5235865;28;20108;-78
2022/03/31 07:11:23;;;;;;;13.38;6.80;;;;;;;3.95;85.88;99383.28;5233588;28;20031;-78
2022/03/31 07:13:54;;;;;;;12.98;6.50;;;;;;;4.34;84.25;99387.31;5233584;28;20036;-78
2022/03/31 07:16:24;;;;;;;14.07;6.22;;;;;;;4.48;83.18;99385.13;5233279;28;20486;-79
2022/03/31 07:18:55;;;;;;;13.23;7.10;;;;;;;4.68;82.32;99375.06;5233193;28;20081;-79
2022/03/31 07:21:25;;;;;;;13.25;6.47;;;;;;;4.69;81.40;99389.69;5233406;28;20073;-79
2022/03/31 07:23:55;;;;;;;13.77;6.82;;;;;;;4.91;81.48;99390.69;5233905;28;20040;-78
2022/03/31 07:26:26;;;;;;;16.23;7.00;;;;;;;4.59;81.68;99384.81;5236489;28;20035;-79
2022/03/31 07:28:56;;;;;;;13.30;7.03;;;;;;;4.80;81.33;99382.41;5234514;28;20418;-79
2022/03/31 07:31:28;;;;;;;14.38;7.05;;;;;;;4.65;82.55;99379.47;5229515;28;20399;-78
2022/03/31 07:33:58;;;;;;;15.02;7.57;;;;;;;4.35;83.05;99385.56;5232460;28;20390;-78
2022/03/31 07:36:29;;;;;;;14.70;7.60;;;;;;;3.94;84.61;99388.50;5226787;28;20079;-78
2022/03/31 07:38:59;;;;;;;15.55;7.82;;;;;;;3.83;84.92;99388.81;5209205;28;20037;-79
2022/03/31 07:41:29;;;;;;;12.35;7.60;;;;;;;3.80;86.06;99391.44;5229967;28;20032;-79
2022/03/31 07:43:59;;;;;;;14.73;7.72;;;;;;;3.96;85.27;99391.88;5232184;28;20406;-79
2022/03/31 07:46:32;;;;;;;14.52;8.00;;;;;;;3.81;85.64;99398.31;5231526;28;20132;-78
2022/03/31 07:49:03;;;;;;;14.45;7.22;;;;;;;3.54;86.05;99397.38;5234666;28;20051;-78
2022/03/31 07:51:33;;;;;;;14.40;7.47;;;;;;;3.83;85.60;99391.38;5231872;28;20013;-78
2022/03/31 07:54:03;;;;;;;17.73;7.60;;;;;;;3.70;86.39;99402.06;5232193;28;20036;-78
2022/03/31 07:56:34;;;;;;;16.40;7.97;;;;;;;3.74;86.17;99399.38;5230732;28;20548;-78
2022/03/31 07:59:06;;;;;;;14.40;7.43;;;;;;;3.82;86.59;99394.84;5223968;28;20107;-78
2022/03/31 08:01:37;;;;;;;13.85;7.28;;;;;;;3.76;85.68;99394.19;5233862;28;20541;-78
2022/03/31 08:04:07;;;;;;;15.40;7.10;;;;;;;3.95;85.19;99398.78;5230813;28;20092;-78
2022/03/31 08:06:37;;;;;;;19.20;7.43;;;;;;;3.98;85.76;99388.34;5233959;28;20462;-78
2022/03/31 08:09:08;;;;;;;16.92;7.00;;;;;;;3.83;85.44;99396.56;5233183;28;20032;-78
2022/03/31 08:11:39;;;;;;;15.90;7.38;;;;;;;3.81;85.18;99392.31;5236626;28;20044;-78
2022/03/31 08:14:10;;;;;;;16.10;7.55;;;;;;;3.83;85.99;99390.53;5213437;28;20116;-78
2022/03/31 08:16:40;;;;;;;15.38;7.47;;;;;;;3.77;85.58;99386.38;5233919;28;20526;-78
2022/03/31 08:19:10;;;;;;;15.60;8.02;;;;;;;3.89;86.92;99382.59;5232084;28;20169;-79
2022/03/31 08:21:42;;;;;;;14.68;7.35;;;;;;;3.90;85.41;99392.91;5230423;28;20032;-78
2022/03/31 08:24:13;;;;;;;15.63;7.82;;;;;;;4.07;85.63;99385.53;5233790;28;20513;-78
2022/03/31 08:26:46;;;;;;;15.85;8.23;;;;;;;3.79;86.00;99391.50;5229037;28;20036;-78
2022/03/31 08:29:17;;;;;;;15.18;8.50;;;;;;;3.82;85.52;99392.25;5225975;28;20116;-78
2022/03/31 08:31:47;;;;;;;15.82;7.47;;;;;;;3.58;86.60;99398.09;5232207;28;20031;-78
2022/03/31 08:34:18;;;;;;;17.20;8.63;;;;;;;3.65;86.60;99394.44;5231037;28;20033;-78
2022/03/31 08:36:48;;;;;;;15.15;8.10;;;;;;;3.78;86.13;99403.56;5228132;28;20040;-78
2022/03/31 08:39:18;;;;;;;15.90;7.22;;;;;;;3.90;86.13;99397.22;5236152;28;20414;-78
2022/03/31 08:41:49;;;;;;;12.88;7.10;;;;;;;3.81;85.61;99408.63;5231633;28;20489;-78
2022/03/31 08:44:20;;;;;;;10.30;6.25;;;;;;;3.98;84.18;99401.28;5236888;28;20028;-78
2022/03/31 08:46:51;;;;;;;15.35;6.35;;;;;;;4.10;83.76;99395.75;5217863;28;20402;-78
2022/03/31 08:49:22;;;;;;;15.45;6.53;;;;;;;4.46;84.04;99389.50;5236641;28;20541;-78
2022/03/31 08:51:53;;;;;;;12.68;6.03;;;;;;;4.14;83.25;99393.94;5236110;28;20021;-78
2022/03/31 08:54:23;;;;;;;14.02;6.57;;;;;;;4.39;83.76;99395.78;5232611;28;20031;-79
2022/03/31 08:56:54;;;;;;;12.85;6.28;;;;;;;4.64;82.51;99398.47;5232391;28;20544;-78
2022/03/31 08:59:24;;;;;;;8.52;4.82;;;;;;;4.15;82.53;99396.47;5234952;28;20062;-78
2022/03/31 09:01:55;;;;;;;10.27;5.63;;;;;;;4.25;82.60;99395.31;5236481;28;20505;-78
2022/03/31 09:04:25;;;;;;;9.57;5.25;;;;;;;4.57;81.39;99386.59;5235972;28;20504;-78
2022/03/31 09:07:03;;;;;;;10.10;5.32;;;;;;;4.49;81.66;99404.94;5235836;28;20028;-78
2022/03/31 09:09:47;;;;;;;11.93;5.15;;;;;;;4.75;80.32;99396.38;5229889;28;20029;-78
2022/03/31 09:12:17;;;;;;;9.93;4.78;;;;;;;4.66;79.99;99396.69;5237547;28;20048;-78
2022/03/31 09:14:48;;;;;;;10.80;5.05;;;;;;;5.06;79.69;99397.97;5233898;28;20059;-78
2022/03/31 09:17:19;;;;;;;10.07;4.78;;;;;;;4.90;78.84;99385.53;5235385;28;20028;-78
2022/03/31 09:19:56;;;;;;;9.30;4.85;;;;;;;4.89;78.91;99386.44;5234286;28;20025;-78
2022/03/31 09:22:26;;;;;;;8.55;4.88;;;;;;;5.18;79.27;99388.94;5234212;28;20036;-78
2022/03/31 09:25:01;;;;;;;10.27;4.75;;;;;;;5.06;78.51;99389.34;5235047;28;20052;-79
2022/03/31 09:27:32;;;;;;;8.18;4.43;;;;;;;5.24;77.80;99389.59;5229864;28;20020;-78
2022/03/31 09:30:06;;;;;;;7.72;4.03;;;;;;;5.42;77.92;99392.41;5233638;28;20032;-78
2022/03/31 09:32:46;;;;;;;9.90;4.90;;;;;;;5.76;76.90;99398.09;5232482;28;20032;-78
2022/03/31 09:35:21;;;;;;;12.00;4.65;;;;;;;5.57;76.73;99396.22;5233030;28;20033;-78
2022/03/31 09:37:55;;;;;;;9.00;4.82;;;;;;;5.94;77.37;99402.69;5239818;28;20063;-79
2022/03/31 09:40:35;;;;;;;9.07;4.40;;;;;;;5.87;76.70;99402.94;5239973;28;20067;-78
2022/03/31 09:43:05;;;;;;;12.88;4.43;;;;;;;5.77;76.42;99380.81;5236371;28;20048;-78
2022/03/31 09:45:40;;;;;;;9.18;4.30;;;;;;;5.93;75.72;99388.03;5232018;28;20068;-78
2022/03/31 09:48:22;;;;;;;8.68;4.32;;;;;;;5.89;75.43;99383.03;5234918;28;20409;-78
2022/03/31 09:50:53;;;;;;;16.20;4.10;;;;;;;6.07;75.38;99380.59;5213354;28;20279;-78
2022/03/31 09:53:27;;;;;;;7.10;4.25;;;;;;;6.14;75.63;99389.00;5216846;28;20380;-78
2022/03/31 09:55:57;;;;;;;9.32;4.03;;;;;;;5.70;73.62;99382.78;5231946;28;20027;-78
2022/03/31 09:58:28;;;;;;;6.63;3.70;;;;;;;5.76;74.53;99382.56;5233832;28;20024;-78
2022/03/31 10:00:59;;;;;;;7.75;3.58;;;;;;;5.70;73.29;99397.47;5234804;28;20036;-78
2022/03/31 10:03:30;;;;;;;8.18;3.58;;;;;;;5.81;72.43;99385.03;5233463;28;20541;-78
2022/03/31 10:06:01;;;;;;;6.63;3.40;;;;;;;5.75;73.01;99382.63;5235618;28;20507;-78
2022/03/31 10:08:42;;;;;;;5.97;3.40;;;;;;;5.70;72.20;99377.59;5233813;28;20033;-78
2022/03/31 10:11:13;;;;;;;7.80;3.35;;;;;;;5.78;72.01;99372.16;5235866;28;20330;-78
2022/03/31 10:14:00;;;;;;;7.50;3.55;;;;;;;5.86;71.92;99373.59;5234447;28;20539;-78
2022/03/31 10:16:44;;;;;;;6.15;3.40;;;;;;;5.76;71.13;99382.56;5233630;28;20119;-77
2022/03/31 10:19:28;;;;;;;8.63;3.33;;;;;;;5.86;71.16;99372.75;5232054;28;20111;-78
2022/03/31 10:22:03;;;;;;;9.23;3.17;;;;;;;5.83;70.82;99372.84;5231949;28;20040;-78
2022/03/31 10:24:45;;;;;;;8.63;3.50;;;;;;;5.86;70.96;99357.19;5217196;28;20047;-78
2022/03/31 10:27:28;;;;;;;6.50;3.38;;;;;;;5.66;71.10;99376.03;5235503;28;20036;-78
2022/03/31 10:30:25;;;;;;;7.10;3.60;;;;;;;5.80;71.24;99360.00;5234875;28;20091;-79
2022/03/31 10:32:57;;;;;;;9.60;3.35;;;;;;;5.92;70.11;99351.81;5233489;28;20025;-78
2022/03/31 10:35:30;;;;;;;11.55;3.22;;;;;;;5.95;70.98;99362.06;5214488;28;20123;-78
2022/03/31 10:38:18;;;;;;;8.52;3.63;;;;;;;6.10;69.82;99361.50;5236286;28;20035;-78
2022/03/31 10:41:00;;;;;;;6.50;3.40;;;;;;;5.98;68.81;99360.19;5236253;28;20093;-78
2022/03/31 10:43:32;;;;;;;11.18;3.40;;;;;;;6.08;68.58;99358.13;5231957;28;20039;-78
2022/03/31 10:46:16;;;;;;;6.13;3.20;;;;;;;6.02;67.61;99348.81;5233949;28;20032;-78
2022/03/31 10:48:51;;;;;;;9.30;2.92;;;;;;;6.08;67.20;99351.16;5232276;28;20029;-78
2022/03/31 10:51:36;;;;;;;10.52;2.97;;;;;;;6.08;66.71;99350.34;5233870;28;20028;-78
2022/03/31 10:54:09;;;;;;;7.38;3.30;;;;;;;6.25;65.82;99346.19;5234586;28;20480;-78
2022/03/31 10:56:40;;;;;;;6.47;3.05;;;;;;;6.10;66.83;99357.13;5257935;22;20025;-78
2022/03/31 10:59:12;;;;;;;7.07;3.40;;;;;;;6.08;66.50;99348.56;5269653;28;20470;-78
2022/03/31 11:01:45;;;;;;;8.98;3.42;;;;;;;6.37;67.33;99344.88;5271834;28;20026;-79
2022/03/31 11:04:16;;;;;;;7.18;3.08;;;;;;;6.66;65.87;99342.84;5273760;28;20032;-77
2022/03/31 11:06:51;;;;;;;7.45;3.40;;;;;;;6.42;66.20;99345.56;5275140;28;20401;-78
2022/03/31 11:09:23;;;;;;;6.47;3.10;;;;;;;6.19;64.79;99342.97;5269981;28;20035;-78
2022/03/31 11:11:56;;;;;;;12.05;3.60;;;;;;;6.25;64.90;99345.38;5273744;28;20092;-77
2022/03/31 11:14:27;;;;;;;6.30;3.40;;;;;;;6.23;65.29;99342.00;5255271;28;20493;-78
2022/03/31 11:16:57;;;;;;;7.80;3.28;;;;;;;6.29;64.57;99349.53;5255803;28;20072;-78
2022/03/31 11:19:36;;;;;;;6.85;3.08;;;;;;;6.07;64.29;99341.69;5271478;28;20115;-78
2022/03/31 11:22:07;;;;;;;5.50;2.72;;;;;;;6.24;65.17;99338.50;5260599;28;20540;-77
2022/03/31 11:24:37;;;;;;;5.28;2.55;;;;;;;5.95;63.01;99349.09;5262926;28;20045;-78
2022/03/31 11:27:08;;;;;;;10.07;3.15;;;;;;;5.84;63.60;99348.63;5264789;28;20032;-78
2022/03/31 11:29:38;;;;;;;7.22;3.00;;;;;;;5.96;63.88;99335.22;5269467;28;20442;-77
2022/03/31 11:32:08;;;;;;;9.30;3.03;;;;;;;6.00;63.90;99329.88;5266659;28;20047;-78
2022/03/31 11:34:49;;;;;;;5.70;3.03;;;;;;;6.05;64.06;99327.94;5276253;28;20473;-78
2022/03/31 11:37:20;;;;;;;7.13;3.10;;;;;;;5.94;63.51;99330.09;5270301;28;20301;-78
2022/03/31 11:39:50;;;;;;;10.80;3.25;;;;;;;6.06;63.54;99329.63;5273248;28;20045;-78
2022/03/31 11:42:21;;;;;;;8.48;2.85;;;;;;;6.00;62.56;99329.00;5272729;28;20044;-78
2022/03/31 11:44:51;;;;;;;9.65;3.25;;;;;;;6.02;62.92;99333.25;5275662;28;20366;-80
2022/03/31 11:47:23;;;;;;;5.72;2.78;;;;;;;6.08;63.58;99332.19;5272849;28;20496;-80
2022/03/31 11:50:00;;;;;;;6.10;3.08;;;;;;;5.85;65.15;99332.16;5267796;28;20024;-80
2022/03/31 11:52:32;;;;;;;12.57;3.08;;;;;;;5.86;65.09;99331.25;5273001;28;20038;-80